sensor_id;sensor_type;location;lat;lon;timestamp;pressure;altitude;pressure_sealevel;temperature;humidity
43071;BME280;36278;47.952;21.714;2023-04-28T00:00:17;100938.41;;;8.96;63.40
43071;BME280;36278;47.952;21.714;2023-04-28T00:02:43;100932.63;;;8.90;63.00
43071;BME280;36278;47.952;21.714;2023-04-28T00:05:09;100944.78;;;8.92;63.10
43071;BME280;36278;47.952;21.714;2023-04-28T00:07:36;100939.69;;;8.89;63.48
43071;BME280;36278;47.952;21.714;2023-04-28T00:10:01;100945.94;;;8.88;62.66
43071;BME280;36278;47.952;21.714;2023-04-28T00:12:27;100949.41;;;8.89;62.50
43071;BME280;36278;47.952;21.714;2023-04-28T00:14:52;100954.69;;;8.89;64.68
43071;BME280;36278;47.952;21.714;2023-04-28T00:17:18;100953.16;;;8.85;63.62
43071;BME280;36278;47.952;21.714;2023-04-28T00:19:43;100954.00;;;8.85;63.31
43071;BME280;36278;47.952;21.714;2023-04-28T00:22:09;100949.88;;;8.81;65.35
43071;BME280;36278;47.952;21.714;2023-04-28T00:24:34;100957.94;;;8.78;64.86
43071;BME280;36278;47.952;21.714;2023-04-28T00:27:00;100942.72;;;8.67;64.91
43071;BME280;36278;47.952;21.714;2023-04-28T00:29:28;100954.91;;;8.70;65.74
43071;BME280;36278;47.952;21.714;2023-04-28T00:31:53;100950.56;;;8.69;65.14
43071;BME280;36278;47.952;21.714;2023-04-28T00:34:19;100947.41;;;8.62;66.21
43071;BME280;36278;47.952;21.714;2023-04-28T00:36:44;100951.09;;;8.60;66.56
43071;BME280;36278;47.952;21.714;2023-04-28T00:39:10;100951.09;;;8.60;66.75
43071;BME280;36278;47.952;21.714;2023-04-28T00:41:35;100952.03;;;8.59;66.72
43071;BME280;36278;47.952;21.714;2023-04-28T00:44:01;100946.00;;;8.57;67.45
43071;BME280;36278;47.952;21.714;2023-04-28T00:46:29;100950.50;;;8.55;66.67
43071;BME280;36278;47.952;21.714;2023-04-28T00:48:55;100947.84;;;8.55;66.80
43071;BME280;36278;47.952;21.714;2023-04-28T00:51:21;100947.84;;;8.55;66.80
43071;BME280;36278;47.952;21.714;2023-04-28T00:53:47;100943.34;;;8.57;67.64
43071;BME280;36278;47.952;21.714;2023-04-28T00:56:13;100945.22;;;8.55;67.28
43071;BME280;36278;47.952;21.714;2023-04-28T00:58:39;100937.38;;;8.53;67.80
43071;BME280;36278;47.952;21.714;2023-04-28T01:01:05;100947.78;;;8.56;66.62
43071;BME280;36278;47.952;21.714;2023-04-28T01:03:37;100949.16;;;8.48;68.86
43071;BME280;36278;47.952;21.714;2023-04-28T01:06:07;100953.84;;;8.42;68.66
43071;BME280;36278;47.952;21.714;2023-04-28T01:08:35;100956.31;;;8.46;68.55
43071;BME280;36278;47.952;21.714;2023-04-28T01:11:01;100951.19;;;8.42;68.28
43071;BME280;36278;47.952;21.714;2023-04-28T01:13:27;100948.44;;;8.28;69.22
43071;BME280;36278;47.952;21.714;2023-04-28T01:15:54;100954.84;;;8.24;69.66
43071;BME280;36278;47.952;21.714;2023-04-28T01:18:20;100957.50;;;8.24;69.97
43071;BME280;36278;47.952;21.714;2023-04-28T01:20:45;100941.22;;;8.16;69.88
43071;BME280;36278;47.952;21.714;2023-04-28T01:23:15;100950.16;;;8.13;70.82
43071;BME280;36278;47.952;21.714;2023-04-28T01:25:42;100962.69;;;8.10;70.52
43071;BME280;36278;47.952;21.714;2023-04-28T01:28:09;100954.00;;;8.08;70.78
43071;BME280;36278;47.952;21.714;2023-04-28T01:30:35;100953.38;;;8.03;70.51
43071;BME280;36278;47.952;21.714;2023-04-28T01:33:01;100958.47;;;8.06;72.32
43071;BME280;36278;47.952;21.714;2023-04-28T01:35:27;100956.78;;;8.05;71.58
43071;BME280;36278;47.952;21.714;2023-04-28T01:37:53;100953.56;;;8.00;72.85
43071;BME280;36278;47.952;21.714;2023-04-28T01:40:18;100955.19;;;8.02;72.74
43071;BME280;36278;47.952;21.714;2023-04-28T01:42:44;100956.22;;;8.00;72.67
43071;BME280;36278;47.952;21.714;2023-04-28T01:45:10;100948.63;;;7.94;72.81
43071;BME280;36278;47.952;21.714;2023-04-28T01:47:36;100948.19;;;7.85;73.12
43071;BME280;36278;47.952;21.714;2023-04-28T01:50:01;100956.09;;;7.85;74.02
43071;BME280;36278;47.952;21.714;2023-04-28T01:52:27;100950.16;;;7.82;74.09
43071;BME280;36278;47.952;21.714;2023-04-28T01:54:53;100962.56;;;7.80;74.33
43071;BME280;36278;47.952;21.714;2023-04-28T01:57:19;100952.25;;;7.75;74.44
43071;BME280;36278;47.952;21.714;2023-04-28T01:59:45;100950.56;;;7.74;73.99
43071;BME280;36278;47.952;21.714;2023-04-28T02:02:10;100953.19;;;7.74;74.36
43071;BME280;36278;47.952;21.714;2023-04-28T02:04:39;100954.94;;;7.58;75.95
43071;BME280;36278;47.952;21.714;2023-04-28T02:07:05;100959.84;;;7.48;76.60
43071;BME280;36278;47.952;21.714;2023-04-28T02:09:32;100955.66;;;7.44;77.04
43071;BME280;36278;47.952;21.714;2023-04-28T02:11:57;100958.31;;;7.44;77.34
43071;BME280;36278;47.952;21.714;2023-04-28T02:14:24;100960.63;;;7.50;78.11
43071;BME280;36278;47.952;21.714;2023-04-28T02:16:50;100952.31;;;7.41;80.26
43071;BME280;36278;47.952;21.714;2023-04-28T02:19:15;100965.19;;;7.47;78.63
43071;BME280;36278;47.952;21.714;2023-04-28T02:21:41;100955.84;;;7.41;79.93
43071;BME280;36278;47.952;21.714;2023-04-28T02:24:07;100957.28;;;7.47;78.44
43071;BME280;36278;47.952;21.714;2023-04-28T02:26:33;100959.34;;;7.42;81.19
43071;BME280;36278;47.952;21.714;2023-04-28T02:28:59;100960.22;;;7.41;80.12
43071;BME280;36278;47.952;21.714;2023-04-28T02:31:25;100962.88;;;7.41;79.84
43071;BME280;36278;47.952;21.714;2023-04-28T02:33:51;100962.19;;;7.37;79.91
43071;BME280;36278;47.952;21.714;2023-04-28T02:36:17;100960.66;;;7.33;80.64
43071;BME280;36278;47.952;21.714;2023-04-28T02:38:43;100959.31;;;7.24;82.13
43071;BME280;36278;47.952;21.714;2023-04-28T02:41:09;100958.94;;;7.32;83.26
43071;BME280;36278;47.952;21.714;2023-04-28T02:43:34;100965.84;;;7.35;82.48
43071;BME280;36278;47.952;21.714;2023-04-28T02:46:02;100966.16;;;7.28;82.20
43071;BME280;36278;47.952;21.714;2023-04-28T02:48:27;100967.00;;;7.29;83.63
43071;BME280;36278;47.952;21.714;2023-04-28T02:50:53;100960.88;;;7.28;83.65
43071;BME280;36278;47.952;21.714;2023-04-28T02:53:19;100964.53;;;7.26;83.83
43071;BME280;36278;47.952;21.714;2023-04-28T02:55:45;100963.75;;;7.24;83.54
43071;BME280;36278;47.952;21.714;2023-04-28T02:58:10;100961.50;;;7.16;83.29
43071;BME280;36278;47.952;21.714;2023-04-28T03:00:36;100970.28;;;7.17;82.55
43071;BME280;36278;47.952;21.714;2023-04-28T03:03:01;100956.41;;;7.13;82.59
43071;BME280;36278;47.952;21.714;2023-04-28T03:05:27;100970.44;;;7.14;83.62
43071;BME280;36278;47.952;21.714;2023-04-28T03:07:52;100976.78;;;7.10;84.15
43071;BME280;36278;47.952;21.714;2023-04-28T03:10:18;100975.31;;;7.04;84.56
43071;BME280;36278;47.952;21.714;2023-04-28T03:12:44;100973.53;;;7.05;86.06
43071;BME280;36278;47.952;21.714;2023-04-28T03:15:10;100981.50;;;7.03;85.75
43071;BME280;36278;47.952;21.714;2023-04-28T03:17:35;100980.81;;;6.99;86.08
43071;BME280;36278;47.952;21.714;2023-04-28T03:20:04;100981.66;;;7.00;87.24
43071;BME280;36278;47.952;21.714;2023-04-28T03:22:29;100987.63;;;7.03;85.65
43071;BME280;36278;47.952;21.714;2023-04-28T03:24:55;100988.19;;;6.93;85.95
43071;BME280;36278;47.952;21.714;2023-04-28T03:27:20;100985.59;;;6.91;86.60
43071;BME280;36278;47.952;21.714;2023-04-28T03:29:46;100983.13;;;6.88;86.24
43071;BME280;36278;47.952;21.714;2023-04-28T03:32:12;100987.75;;;6.83;86.89
43071;BME280;36278;47.952;21.714;2023-04-28T03:34:37;100985.59;;;6.91;86.83
43071;BME280;36278;47.952;21.714;2023-04-28T03:37:02;100991.66;;;6.93;88.12
43071;BME280;36278;47.952;21.714;2023-04-28T03:39:28;100987.84;;;6.99;88.11
43071;BME280;36278;47.952;21.714;2023-04-28T03:41:54;100993.06;;;7.00;87.32
43071;BME280;36278;47.952;21.714;2023-04-28T03:44:19;101000.81;;;7.03;88.17
43071;BME280;36278;47.952;21.714;2023-04-28T03:46:45;100992.75;;;7.07;87.59
43071;BME280;36278;47.952;21.714;2023-04-28T03:49:11;100994.44;;;7.08;86.69
43071;BME280;36278;47.952;21.714;2023-04-28T03:51:36;100992.75;;;7.07;86.90
43071;BME280;36278;47.952;21.714;2023-04-28T03:54:02;101009.34;;;7.09;88.00
43071;BME280;36278;47.952;21.714;2023-04-28T03:56:27;100998.84;;;7.07;87.26
43071;BME280;36278;47.952;21.714;2023-04-28T03:58:53;101002.97;;;7.13;88.01
43071;BME280;36278;47.952;21.714;2023-04-28T04:01:18;101008.88;;;7.18;89.00
43071;BME280;36278;47.952;21.714;2023-04-28T04:03:43;101007.09;;;7.18;88.04
43071;BME280;36278;47.952;21.714;2023-04-28T04:06:09;101017.47;;;7.21;88.17
43071;BME280;36278;47.952;21.714;2023-04-28T04:08:35;101014.63;;;7.26;88.58
43071;BME280;36278;47.952;21.714;2023-04-28T04:11:00;101016.06;;;7.31;86.84
43071;BME280;36278;47.952;21.714;2023-04-28T04:13:25;101014.69;;;7.42;86.74
43071;BME280;36278;47.952;21.714;2023-04-28T04:15:51;101018.75;;;7.47;87.34
43071;BME280;36278;47.952;21.714;2023-04-28T04:18:17;101019.13;;;7.57;86.55
43071;BME280;36278;47.952;21.714;2023-04-28T04:20:43;101020.88;;;7.58;85.89
43071;BME280;36278;47.952;21.714;2023-04-28T04:23:08;101017.97;;;7.63;86.10
43071;BME280;36278;47.952;21.714;2023-04-28T04:25:34;101028.22;;;7.69;85.29
43071;BME280;36278;47.952;21.714;2023-04-28T04:28:00;101032.16;;;7.77;84.69
43071;BME280;36278;47.952;21.714;2023-04-28T04:30:25;101026.66;;;7.82;84.67
43071;BME280;36278;47.952;21.714;2023-04-28T04:32:51;101028.84;;;7.90;84.25
43071;BME280;36278;47.952;21.714;2023-04-28T04:35:16;101036.75;;;7.90;84.43
43071;BME280;36278;47.952;21.714;2023-04-28T04:37:42;101027.69;;;7.95;84.69
43071;BME280;36278;47.952;21.714;2023-04-28T04:40:08;101031.69;;;8.02;84.00
43071;BME280;36278;47.952;21.714;2023-04-28T04:42:33;101033.41;;;8.03;83.57
43071;BME280;36278;47.952;21.714;2023-04-28T04:44:59;101044.47;;;8.10;82.82
43071;BME280;36278;47.952;21.714;2023-04-28T04:47:24;101038.69;;;8.19;82.23
43071;BME280;36278;47.952;21.714;2023-04-28T04:49:51;101036.41;;;8.29;82.23
43071;BME280;36278;47.952;21.714;2023-04-28T04:52:17;101037.72;;;8.37;81.51
43071;BME280;36278;47.952;21.714;2023-04-28T04:54:43;101042.16;;;8.53;80.65
43071;BME280;36278;47.952;21.714;2023-04-28T04:57:09;101039.69;;;8.65;80.15
43071;BME280;36278;47.952;21.714;2023-04-28T04:59:35;101039.84;;;8.78;80.18
43071;BME280;36278;47.952;21.714;2023-04-28T05:02:01;101038.66;;;8.84;79.08
43071;BME280;36278;47.952;21.714;2023-04-28T05:04:26;101046.56;;;8.99;78.23
43071;BME280;36278;47.952;21.714;2023-04-28T05:06:52;101035.63;;;9.06;73.59
43071;BME280;36278;47.952;21.714;2023-04-28T05:09:17;101044.38;;;9.22;70.13
43071;BME280;36278;47.952;21.714;2023-04-28T05:11:44;101036.06;;;9.28;69.21
43071;BME280;36278;47.952;21.714;2023-04-28T05:14:09;101046.78;;;9.41;65.47
43071;BME280;36278;47.952;21.714;2023-04-28T05:16:34;101045.38;;;9.49;64.01
43071;BME280;36278;47.952;21.714;2023-04-28T05:19:00;101048.22;;;9.61;64.36
43071;BME280;36278;47.952;21.714;2023-04-28T05:21:25;101053.00;;;9.70;64.37
43071;BME280;36278;47.952;21.714;2023-04-28T05:23:51;101051.19;;;9.84;61.86
43071;BME280;36278;47.952;21.714;2023-04-28T05:26:17;101050.44;;;9.97;61.74
43071;BME280;36278;47.952;21.714;2023-04-28T05:28:43;101036.06;;;10.01;61.41
43071;BME280;36278;47.952;21.714;2023-04-28T05:31:09;101051.69;;;10.05;61.34
43071;BME280;36278;47.952;21.714;2023-04-28T05:33:34;101046.59;;;10.02;61.63
43071;BME280;36278;47.952;21.714;2023-04-28T05:35:59;101060.19;;;10.10;63.14
43071;BME280;36278;47.952;21.714;2023-04-28T05:38:25;101044.97;;;10.14;65.56
43071;BME280;36278;47.952;21.714;2023-04-28T05:40:51;101063.63;;;10.27;63.87
43071;BME280;36278;47.952;21.714;2023-04-28T05:43:16;101060.03;;;10.28;63.48
43071;BME280;36278;47.952;21.714;2023-04-28T05:45:42;101065.13;;;10.45;60.58
43071;BME280;36278;47.952;21.714;2023-04-28T05:48:07;101070.09;;;10.50;59.58
43071;BME280;36278;47.952;21.714;2023-04-28T05:50:33;101081.16;;;10.56;59.30
43071;BME280;36278;47.952;21.714;2023-04-28T05:52:58;101075.50;;;10.48;60.53
43071;BME280;36278;47.952;21.714;2023-04-28T05:55:23;101078.72;;;10.53;60.29
43071;BME280;36278;47.952;21.714;2023-04-28T05:57:49;101074.25;;;10.68;59.47
43071;BME280;36278;47.952;21.714;2023-04-28T06:00:15;101065.84;;;10.61;59.73
43071;BME280;36278;47.952;21.714;2023-04-28T06:02:41;101065.47;;;10.53;57.86
43071;BME280;36278;47.952;21.714;2023-04-28T06:05:08;101065.84;;;10.61;58.51
43071;BME280;36278;47.952;21.714;2023-04-28T06:07:33;101071.19;;;10.74;57.04
43071;BME280;36278;47.952;21.714;2023-04-28T06:09:59;101065.16;;;10.58;56.83
43071;BME280;36278;47.952;21.714;2023-04-28T06:12:25;101065.97;;;10.46;57.38
43071;BME280;36278;47.952;21.714;2023-04-28T06:14:50;101076.66;;;10.44;57.52
43071;BME280;36278;47.952;21.714;2023-04-28T06:17:19;101064.16;;;10.46;57.93
43071;BME280;36278;47.952;21.714;2023-04-28T06:19:45;101067.38;;;10.51;57.22
43071;BME280;36278;47.952;21.714;2023-04-28T06:22:11;101070.66;;;10.69;57.76
43071;BME280;36278;47.952;21.714;2023-04-28T06:24:36;101076.81;;;10.70;57.80
43071;BME280;36278;47.952;21.714;2023-04-28T06:27:02;101074.25;;;10.95;57.18
43071;BME280;36278;47.952;21.714;2023-04-28T06:29:28;101076.09;;;11.07;56.15
43071;BME280;36278;47.952;21.714;2023-04-28T06:31:53;101076.09;;;11.34;56.16
43071;BME280;36278;47.952;21.714;2023-04-28T06:34:24;101078.56;;;11.50;54.37
43071;BME280;36278;47.952;21.714;2023-04-28T06:36:51;101079.41;;;11.63;54.19
43071;BME280;36278;47.952;21.714;2023-04-28T06:39:17;101075.00;;;11.76;52.77
43071;BME280;36278;47.952;21.714;2023-04-28T06:41:42;101080.28;;;11.76;52.78
43071;BME280;36278;47.952;21.714;2023-04-28T06:44:08;101076.91;;;11.74;52.94
43071;BME280;36278;47.952;21.714;2023-04-28T06:46:35;101066.28;;;11.74;53.85
43071;BME280;36278;47.952;21.714;2023-04-28T06:49:01;101070.78;;;11.87;51.83
43071;BME280;36278;47.952;21.714;2023-04-28T06:51:26;101066.13;;;11.90;52.60
43071;BME280;36278;47.952;21.714;2023-04-28T06:53:53;101077.91;;;11.99;51.86
43071;BME280;36278;47.952;21.714;2023-04-28T06:56:19;101072.47;;;12.13;50.50
43071;BME280;36278;47.952;21.714;2023-04-28T06:58:44;101078.22;;;12.07;51.30
43071;BME280;36278;47.952;21.714;2023-04-28T07:01:10;101080.97;;;11.93;50.63
43071;BME280;36278;47.952;21.714;2023-04-28T07:03:35;101082.25;;;12.00;49.79
43071;BME280;36278;47.952;21.714;2023-04-28T07:06:01;101075.66;;;12.18;49.96
43071;BME280;36278;47.952;21.714;2023-04-28T07:08:28;101077.53;;;12.42;47.50
43071;BME280;36278;47.952;21.714;2023-04-28T07:10:55;101072.81;;;12.58;46.87
43071;BME280;36278;47.952;21.714;2023-04-28T07:13:20;101073.22;;;12.65;46.32
43071;BME280;36278;47.952;21.714;2023-04-28T07:15:46;101079.00;;;12.82;46.50
43071;BME280;36278;47.952;21.714;2023-04-28T07:18:11;101061.59;;;12.42;46.38
43071;BME280;36278;47.952;21.714;2023-04-28T07:20:37;101062.97;;;12.34;49.03
43071;BME280;36278;47.952;21.714;2023-04-28T07:23:03;101066.59;;;12.33;47.23
43071;BME280;36278;47.952;21.714;2023-04-28T07:25:28;101052.78;;;12.28;49.45
43071;BME280;36278;47.952;21.714;2023-04-28T07:27:54;101059.16;;;12.26;49.73
43071;BME280;36278;47.952;21.714;2023-04-28T07:30:19;101057.84;;;12.57;49.04
43071;BME280;36278;47.952;21.714;2023-04-28T07:32:46;101061.41;;;12.69;46.61
43071;BME280;36278;47.952;21.714;2023-04-28T07:35:12;101054.13;;;12.83;46.77
43071;BME280;36278;47.952;21.714;2023-04-28T07:37:37;101054.81;;;12.98;45.77
43071;BME280;36278;47.952;21.714;2023-04-28T07:40:04;101058.34;;;13.23;43.97
43071;BME280;36278;47.952;21.714;2023-04-28T07:42:29;101052.47;;;13.41;42.63
43071;BME280;36278;47.952;21.714;2023-04-28T07:44:55;101061.94;;;13.57;41.69
43071;BME280;36278;47.952;21.714;2023-04-28T07:47:22;101057.41;;;13.70;41.59
43071;BME280;36278;47.952;21.714;2023-04-28T07:49:48;101051.22;;;13.81;40.83
43071;BME280;36278;47.952;21.714;2023-04-28T07:52:13;101054.34;;;13.63;41.91
43071;BME280;36278;47.952;21.714;2023-04-28T07:54:39;101046.97;;;13.67;42.41
43071;BME280;36278;47.952;21.714;2023-04-28T07:57:04;101052.66;;;13.62;41.25
43071;BME280;36278;47.952;21.714;2023-04-28T07:59:32;101050.03;;;13.85;41.24
43071;BME280;36278;47.952;21.714;2023-04-28T08:01:58;101052.97;;;13.93;40.61
43071;BME280;36278;47.952;21.714;2023-04-28T08:04:24;101046.63;;;14.16;39.92
43071;BME280;36278;47.952;21.714;2023-04-28T08:06:50;101043.16;;;14.27;40.47
43071;BME280;36278;47.952;21.714;2023-04-28T08:09:16;101048.22;;;13.96;40.19
43071;BME280;36278;47.952;21.714;2023-04-28T08:11:41;101036.59;;;14.09;40.17
43071;BME280;36278;47.952;21.714;2023-04-28T08:14:07;101032.00;;;14.22;40.02
43071;BME280;36278;47.952;21.714;2023-04-28T08:16:33;101043.25;;;13.81;41.35
43071;BME280;36278;47.952;21.714;2023-04-28T08:19:03;101034.03;;;14.07;41.32
43071;BME280;36278;47.952;21.714;2023-04-28T08:21:28;101033.91;;;14.31;39.92
43071;BME280;36278;47.952;21.714;2023-04-28T08:23:54;101028.38;;;14.34;40.12
43071;BME280;36278;47.952;21.714;2023-04-28T08:26:19;101025.47;;;14.03;40.46
43071;BME280;36278;47.952;21.714;2023-04-28T08:28:45;101028.81;;;14.39;40.15
43071;BME280;36278;47.952;21.714;2023-04-28T08:31:11;101020.59;;;14.53;40.86
43071;BME280;36278;47.952;21.714;2023-04-28T08:33:36;101019.09;;;14.72;40.52
43071;BME280;36278;47.952;21.714;2023-04-28T08:36:03;101023.03;;;15.00;38.70
43071;BME280;36278;47.952;21.714;2023-04-28T08:38:29;101019.88;;;14.95;36.65
43071;BME280;36278;47.952;21.714;2023-04-28T08:40:55;101018.06;;;14.07;38.90
43071;BME280;36278;47.952;21.714;2023-04-28T08:43:21;101012.72;;;14.52;38.70
43071;BME280;36278;47.952;21.714;2023-04-28T08:45:47;101011.53;;;14.88;38.79
43071;BME280;36278;47.952;21.714;2023-04-28T08:48:17;101009.75;;;15.09;38.94
43071;BME280;36278;47.952;21.714;2023-04-28T08:50:48;101009.69;;;15.21;38.44
43071;BME280;36278;47.952;21.714;2023-04-28T08:53:26;101002.25;;;15.03;39.81
43071;BME280;36278;47.952;21.714;2023-04-28T08:55:54;100997.59;;;14.84;38.98
43071;BME280;36278;47.952;21.714;2023-04-28T08:58:24;100997.53;;;15.28;38.84
43071;BME280;36278;47.952;21.714;2023-04-28T09:00:50;101001.75;;;15.51;37.62
43071;BME280;36278;47.952;21.714;2023-04-28T09:03:16;100995.56;;;15.51;37.92
43071;BME280;36278;47.952;21.714;2023-04-28T09:05:42;101007.84;;;15.74;37.72
43071;BME280;36278;47.952;21.714;2023-04-28T09:08:08;100992.19;;;15.49;38.78
43071;BME280;36278;47.952;21.714;2023-04-28T09:10:36;100994.66;;;15.61;38.23
43071;BME280;36278;47.952;21.714;2023-04-28T09:13:02;101002.84;;;15.90;37.84
43071;BME280;36278;47.952;21.714;2023-04-28T09:15:31;101002.16;;;15.67;37.63
43071;BME280;36278;47.952;21.714;2023-04-28T09:17:57;100995.22;;;15.86;37.05
43071;BME280;36278;47.952;21.714;2023-04-28T09:20:27;100989.91;;;15.95;37.73
43071;BME280;36278;47.952;21.714;2023-04-28T09:22:55;100974.97;;;15.83;39.90
43071;BME280;36278;47.952;21.714;2023-04-28T09:25:21;100980.41;;;16.12;36.43
43071;BME280;36278;47.952;21.714;2023-04-28T09:27:48;100972.03;;;16.26;37.21
43071;BME280;36278;47.952;21.714;2023-04-28T09:30:14;100983.69;;;16.75;35.98
43071;BME280;36278;47.952;21.714;2023-04-28T09:32:40;100969.91;;;16.70;37.26
43071;BME280;36278;47.952;21.714;2023-04-28T09:35:06;100969.47;;;16.85;36.26
43071;BME280;36278;47.952;21.714;2023-04-28T09:37:33;100966.38;;;16.89;36.85
43071;BME280;36278;47.952;21.714;2023-04-28T09:40:17;100966.47;;;17.36;35.49
43071;BME280;36278;47.952;21.714;2023-04-28T09:42:43;100959.53;;;17.53;35.23
43071;BME280;36278;47.952;21.714;2023-04-28T09:45:13;100962.56;;;17.77;34.96
43071;BME280;36278;47.952;21.714;2023-04-28T09:47:40;100961.72;;;17.77;34.72
43071;BME280;36278;47.952;21.714;2023-04-28T09:50:09;100950.06;;;17.96;34.11
43071;BME280;36278;47.952;21.714;2023-04-28T09:52:56;100944.50;;;18.07;34.11
43071;BME280;36278;47.952;21.714;2023-04-28T09:55:23;100945.59;;;17.86;35.24
43071;BME280;36278;47.952;21.714;2023-04-28T09:57:53;100941.59;;;16.87;35.84
43071;BME280;36278;47.952;21.714;2023-04-28T10:00:19;100933.16;;;17.48;35.73
43071;BME280;36278;47.952;21.714;2023-04-28T10:02:45;100934.16;;;17.94;34.66
43071;BME280;36278;47.952;21.714;2023-04-28T10:05:11;100933.78;;;18.07;33.83
43071;BME280;36278;47.952;21.714;2023-04-28T10:07:38;100931.34;;;17.39;34.95
43071;BME280;36278;47.952;21.714;2023-04-28T10:10:04;100927.50;;;17.61;35.30
43071;BME280;36278;47.952;21.714;2023-04-28T10:12:31;100925.44;;;17.82;34.55
43071;BME280;36278;47.952;21.714;2023-04-28T10:14:57;100920.28;;;17.05;37.24
43071;BME280;36278;47.952;21.714;2023-04-28T10:17:22;100919.88;;;17.56;34.98
43071;BME280;36278;47.952;21.714;2023-04-28T10:19:53;100929.72;;;17.09;35.61
43071;BME280;36278;47.952;21.714;2023-04-28T10:27:43;100916.16;;;15.53;39.22
43071;BME280;36278;47.952;21.714;2023-04-28T10:30:11;100915.63;;;16.30;36.56
43071;BME280;36278;47.952;21.714;2023-04-28T10:32:37;100924.50;;;16.40;36.12
43071;BME280;36278;47.952;21.714;2023-04-28T10:38:07;100916.22;;;15.32;38.36
43071;BME280;36278;47.952;21.714;2023-04-28T10:43:01;100908.91;;;15.34;38.53
43071;BME280;36278;47.952;21.714;2023-04-28T10:48:19;100912.63;;;16.13;37.56
43071;BME280;36278;47.952;21.714;2023-04-28T10:56:14;100885.66;;;17.87;35.21
43071;BME280;36278;47.952;21.714;2023-04-28T10:58:42;100884.72;;;17.69;35.26
43071;BME280;36278;47.952;21.714;2023-04-28T11:01:30;100877.25;;;17.35;35.96
43071;BME280;36278;47.952;21.714;2023-04-28T11:03:57;100883.44;;;17.36;35.67
43071;BME280;36278;47.952;21.714;2023-04-28T11:14:38;100874.38;;;16.90;36.86
43071;BME280;36278;47.952;21.714;2023-04-28T11:17:10;100864.19;;;17.13;36.26
43071;BME280;36278;47.952;21.714;2023-04-28T11:19:43;100859.41;;;17.07;36.79
43071;BME280;36278;47.952;21.714;2023-04-28T11:22:19;100866.91;;;16.94;36.89
43071;BME280;36278;47.952;21.714;2023-04-28T11:26:19;100864.28;;;17.31;36.33
43071;BME280;36278;47.952;21.714;2023-04-28T11:29:05;100861.00;;;17.47;35.54
43071;BME280;36278;47.952;21.714;2023-04-28T11:31:31;100859.81;;;18.32;34.40
43071;BME280;36278;47.952;21.714;2023-04-28T11:34:10;100850.56;;;17.81;35.08
43071;BME280;36278;47.952;21.714;2023-04-28T11:36:40;100853.69;;;18.21;34.51
43071;BME280;36278;47.952;21.714;2023-04-28T11:39:10;100852.44;;;18.87;34.14
43071;BME280;36278;47.952;21.714;2023-04-28T11:41:40;100852.25;;;19.67;32.89
43071;BME280;36278;47.952;21.714;2023-04-28T11:44:17;100838.31;;;20.38;32.17
43071;BME280;36278;47.952;21.714;2023-04-28T11:46:48;100833.41;;;21.07;31.01
43071;BME280;36278;47.952;21.714;2023-04-28T11:49:42;100843.97;;;20.19;32.26
43071;BME280;36278;47.952;21.714;2023-04-28T11:52:09;100840.84;;;19.39;32.74
43071;BME280;36278;47.952;21.714;2023-04-28T11:54:35;100833.97;;;18.31;33.87
43071;BME280;36278;47.952;21.714;2023-04-28T11:57:02;100837.00;;;18.89;33.60
43071;BME280;36278;47.952;21.714;2023-04-28T11:59:34;100830.00;;;20.07;32.35
43071;BME280;36278;47.952;21.714;2023-04-28T12:02:02;100824.03;;;20.62;31.38
43071;BME280;36278;47.952;21.714;2023-04-28T12:04:46;100829.38;;;19.63;32.79
43071;BME280;36278;47.952;21.714;2023-04-28T12:07:17;100831.06;;;19.64;32.78
43071;BME280;36278;47.952;21.714;2023-04-28T12:09:47;100818.28;;;20.40;32.33
43071;BME280;36278;47.952;21.714;2023-04-28T12:12:28;100810.59;;;21.25;31.57
43071;BME280;36278;47.952;21.714;2023-04-28T12:14:55;100807.06;;;21.33;31.18
43071;BME280;36278;47.952;21.714;2023-04-28T12:17:29;100810.06;;;20.75;31.10
43071;BME280;36278;47.952;21.714;2023-04-28T12:19:56;100808.00;;;21.57;30.73
43071;BME280;36278;47.952;21.714;2023-04-28T12:22:22;100794.59;;;22.02;30.54
43071;BME280;36278;47.952;21.714;2023-04-28T12:27:28;100795.09;;;22.29;29.76
43071;BME280;36278;47.952;21.714;2023-04-28T12:29:55;100792.78;;;21.95;29.17
43071;BME280;36278;47.952;21.714;2023-04-28T12:32:38;100779.41;;;22.09;29.29
43071;BME280;36278;47.952;21.714;2023-04-28T12:35:04;100786.91;;;22.60;29.08
43071;BME280;36278;47.952;21.714;2023-04-28T12:37:30;100775.16;;;22.07;30.38
43071;BME280;36278;47.952;21.714;2023-04-28T12:39:57;100781.31;;;22.61;28.66
43071;BME280;36278;47.952;21.714;2023-04-28T12:42:22;100768.16;;;23.91;27.09
43071;BME280;36278;47.952;21.714;2023-04-28T12:44:48;100765.28;;;21.76;29.79
43071;BME280;36278;47.952;21.714;2023-04-28T12:47:15;100763.63;;;23.77;27.98
43071;BME280;36278;47.952;21.714;2023-04-28T12:49:42;100759.25;;;24.19;26.88
43071;BME280;36278;47.952;21.714;2023-04-28T12:52:08;100756.59;;;23.46;28.14
43071;BME280;36278;47.952;21.714;2023-04-28T12:54:34;100749.59;;;24.10;27.44
43071;BME280;36278;47.952;21.714;2023-04-28T12:57:00;100744.19;;;24.10;27.78
43071;BME280;36278;47.952;21.714;2023-04-28T12:59:26;100739.97;;;24.50;27.32
43071;BME280;36278;47.952;21.714;2023-04-28T13:01:53;100735.38;;;25.06;27.04
43071;BME280;36278;47.952;21.714;2023-04-28T13:04:20;100727.78;;;24.95;26.25
43071;BME280;36278;47.952;21.714;2023-04-28T13:06:45;100728.03;;;24.38;26.27
43071;BME280;36278;47.952;21.714;2023-04-28T13:09:12;100741.09;;;20.00;30.93
43071;BME280;36278;47.952;21.714;2023-04-28T13:11:39;100739.13;;;20.98;30.82
43071;BME280;36278;47.952;21.714;2023-04-28T13:14:04;100744.78;;;19.91;31.84